RO-0020 weather

Aerodromul Buziaş
Buziaş, Romania

Public forecast

Using degrees Celsius for public forecast. Weather courtesy of forecast.io.

METAR (pilot weather report)

Closest report is Timişoara Traian Vuia Airport, 13.8 nm (25.6 km) NW. Retrieved 2019/06/17 10:30 UTC (4 minutes ago):

LRTR 171030Z 28009KT 9999 FEW030 FEW040CB 26/22 Q1016 NOSIG

TAF (pilot weather forecast)

Closest forecast is Timişoara Traian Vuia Airport, 13.8 nm (25.6 km) NW. Retrieved 2019/06/17 06:33 UTC (4 hours ago):

TAF LRTR 170500Z 1706/1806 VRB04KT CAVOK TEMPO 1712/1718 VRB20G30KT 3000 TSRA BKN010 BKN030CB PROB30 TEMPO 1713/1718 1500 +TSRA TEMPO 1800/1805 3000 BR